sensor_id;sensor_type;location;lat;lon;timestamp;temperature;humidity
19908;DHT22;10116;53.112;7.356;2023-08-30T00:02:18;25.90;99.90
19908;DHT22;10116;53.112;7.356;2023-08-30T00:04:44;25.90;99.90
19908;DHT22;10116;53.112;7.356;2023-08-30T00:07:10;25.90;99.90
19908;DHT22;10116;53.112;7.356;2023-08-30T00:09:36;25.90;99.90
19908;DHT22;10116;53.112;7.356;2023-08-30T00:12:03;25.90;99.90
19908;DHT22;10116;53.112;7.356;2023-08-30T00:14:28;25.90;99.90
19908;DHT22;10116;53.112;7.356;2023-08-30T00:16:54;25.80;99.90
19908;DHT22;10116;53.112;7.356;2023-08-30T00:19:20;25.90;99.90
19908;DHT22;10116;53.112;7.356;2023-08-30T00:21:46;25.90;99.90
19908;DHT22;10116;53.112;7.356;2023-08-30T00:24:11;25.80;99.90
19908;DHT22;10116;53.112;7.356;2023-08-30T00:26:37;25.80;99.90
19908;DHT22;10116;53.112;7.356;2023-08-30T00:29:03;25.90;99.90
19908;DHT22;10116;53.112;7.356;2023-08-30T00:31:28;25.80;99.90
19908;DHT22;10116;53.112;7.356;2023-08-30T00:33:54;25.80;99.90
19908;DHT22;10116;53.112;7.356;2023-08-30T00:36:20;25.80;99.90
19908;DHT22;10116;53.112;7.356;2023-08-30T00:38:46;25.80;99.90
19908;DHT22;10116;53.112;7.356;2023-08-30T00:41:11;25.80;99.90
19908;DHT22;10116;53.112;7.356;2023-08-30T00:43:37;25.80;99.90
19908;DHT22;10116;53.112;7.356;2023-08-30T00:46:03;25.80;99.90
19908;DHT22;10116;53.112;7.356;2023-08-30T00:48:29;25.80;99.90
19908;DHT22;10116;53.112;7.356;2023-08-30T00:50:55;25.80;99.90
19908;DHT22;10116;53.112;7.356;2023-08-30T00:53:20;25.80;99.90
19908;DHT22;10116;53.112;7.356;2023-08-30T00:55:46;25.80;99.90
19908;DHT22;10116;53.112;7.356;2023-08-30T00:58:12;25.80;99.90
19908;DHT22;10116;53.112;7.356;2023-08-30T01:00:38;25.80;99.90
19908;DHT22;10116;53.112;7.356;2023-08-30T01:03:06;25.80;99.90
19908;DHT22;10116;53.112;7.356;2023-08-30T01:05:33;25.80;99.90
19908;DHT22;10116;53.112;7.356;2023-08-30T01:07:59;25.80;99.90
19908;DHT22;10116;53.112;7.356;2023-08-30T01:10:47;25.80;99.90
19908;DHT22;10116;53.112;7.356;2023-08-30T01:13:19;25.80;99.90
19908;DHT22;10116;53.112;7.356;2023-08-30T01:15:47;25.70;99.90
19908;DHT22;10116;53.112;7.356;2023-08-30T01:18:18;25.80;99.90
19908;DHT22;10116;53.112;7.356;2023-08-30T01:20:45;25.80;99.90
19908;DHT22;10116;53.112;7.356;2023-08-30T01:28:35;25.70;99.90
19908;DHT22;10116;53.112;7.356;2023-08-30T01:31:02;25.70;99.90
19908;DHT22;10116;53.112;7.356;2023-08-30T01:33:29;25.70;99.90
19908;DHT22;10116;53.112;7.356;2023-08-30T01:35:58;25.70;99.90
19908;DHT22;10116;53.112;7.356;2023-08-30T01:38:26;25.70;99.90
19908;DHT22;10116;53.112;7.356;2023-08-30T01:40:53;25.70;99.90
19908;DHT22;10116;53.112;7.356;2023-08-30T01:43:21;25.70;99.90
19908;DHT22;10116;53.112;7.356;2023-08-30T01:45:47;25.70;99.90
19908;DHT22;10116;53.112;7.356;2023-08-30T01:48:17;25.70;99.90
19908;DHT22;10116;53.112;7.356;2023-08-30T01:50:44;25.70;99.90
19908;DHT22;10116;53.112;7.356;2023-08-30T01:53:12;25.70;99.90
19908;DHT22;10116;53.112;7.356;2023-08-30T01:55:38;25.70;99.90
19908;DHT22;10116;53.112;7.356;2023-08-30T01:58:06;25.70;99.90
19908;DHT22;10116;53.112;7.356;2023-08-30T02:00:32;25.70;99.90
19908;DHT22;10116;53.112;7.356;2023-08-30T02:02:58;25.70;99.90
19908;DHT22;10116;53.112;7.356;2023-08-30T02:05:23;25.60;99.90
19908;DHT22;10116;53.112;7.356;2023-08-30T02:08:01;25.60;99.90
19908;DHT22;10116;53.112;7.356;2023-08-30T02:10:33;25.70;99.90
19908;DHT22;10116;53.112;7.356;2023-08-30T02:13:03;25.60;99.90
19908;DHT22;10116;53.112;7.356;2023-08-30T02:15:30;25.60;99.90
19908;DHT22;10116;53.112;7.356;2023-08-30T02:17:57;25.60;99.90
19908;DHT22;10116;53.112;7.356;2023-08-30T02:20:23;25.60;99.90
19908;DHT22;10116;53.112;7.356;2023-08-30T02:22:49;25.60;99.90
19908;DHT22;10116;53.112;7.356;2023-08-30T02:25:15;25.60;99.90
19908;DHT22;10116;53.112;7.356;2023-08-30T02:27:41;25.60;99.90
19908;DHT22;10116;53.112;7.356;2023-08-30T02:30:07;25.60;99.90
19908;DHT22;10116;53.112;7.356;2023-08-30T02:32:33;25.60;99.90
19908;DHT22;10116;53.112;7.356;2023-08-30T02:34:59;25.60;99.90
19908;DHT22;10116;53.112;7.356;2023-08-30T02:37:25;25.60;99.90
19908;DHT22;10116;53.112;7.356;2023-08-30T02:39:51;25.60;99.90
19908;DHT22;10116;53.112;7.356;2023-08-30T02:42:16;25.60;99.90
19908;DHT22;10116;53.112;7.356;2023-08-30T02:44:42;25.60;99.90
19908;DHT22;10116;53.112;7.356;2023-08-30T02:47:08;25.60;99.90
19908;DHT22;10116;53.112;7.356;2023-08-30T02:49:34;25.60;99.90
19908;DHT22;10116;53.112;7.356;2023-08-30T02:51:59;25.60;99.90
19908;DHT22;10116;53.112;7.356;2023-08-30T02:54:25;25.50;99.90
19908;DHT22;10116;53.112;7.356;2023-08-30T02:56:51;25.60;99.90
19908;DHT22;10116;53.112;7.356;2023-08-30T02:59:16;25.60;99.90
19908;DHT22;10116;53.112;7.356;2023-08-30T03:01:42;25.60;99.90
19908;DHT22;10116;53.112;7.356;2023-08-30T03:04:08;25.50;99.90
19908;DHT22;10116;53.112;7.356;2023-08-30T03:06:35;25.50;99.90
19908;DHT22;10116;53.112;7.356;2023-08-30T03:09:01;25.60;99.90
19908;DHT22;10116;53.112;7.356;2023-08-30T03:11:28;25.60;99.90
19908;DHT22;10116;53.112;7.356;2023-08-30T03:13:54;25.60;99.90
19908;DHT22;10116;53.112;7.356;2023-08-30T03:16:20;25.50;99.90
19908;DHT22;10116;53.112;7.356;2023-08-30T03:18:47;25.50;99.90
19908;DHT22;10116;53.112;7.356;2023-08-30T03:21:13;25.50;99.90
19908;DHT22;10116;53.112;7.356;2023-08-30T03:23:39;25.50;99.90
19908;DHT22;10116;53.112;7.356;2023-08-30T03:28:36;25.50;99.90
19908;DHT22;10116;53.112;7.356;2023-08-30T03:31:02;25.60;99.90
19908;DHT22;10116;53.112;7.356;2023-08-30T03:33:28;25.60;99.90
19908;DHT22;10116;53.112;7.356;2023-08-30T03:35:53;25.70;99.90
19908;DHT22;10116;53.112;7.356;2023-08-30T03:38:19;25.70;99.90
19908;DHT22;10116;53.112;7.356;2023-08-30T03:40:45;25.80;99.90
19908;DHT22;10116;53.112;7.356;2023-08-30T03:43:11;25.80;99.90
19908;DHT22;10116;53.112;7.356;2023-08-30T03:45:37;25.80;99.90
19908;DHT22;10116;53.112;7.356;2023-08-30T03:48:03;25.80;99.90
19908;DHT22;10116;53.112;7.356;2023-08-30T03:50:29;25.90;99.90
19908;DHT22;10116;53.112;7.356;2023-08-30T03:52:55;25.90;99.90
19908;DHT22;10116;53.112;7.356;2023-08-30T03:55:21;25.90;99.90
19908;DHT22;10116;53.112;7.356;2023-08-30T03:57:48;25.90;99.90
19908;DHT22;10116;53.112;7.356;2023-08-30T04:00:14;25.90;99.90
19908;DHT22;10116;53.112;7.356;2023-08-30T04:02:40;25.90;99.90
19908;DHT22;10116;53.112;7.356;2023-08-30T04:05:06;25.90;99.90
19908;DHT22;10116;53.112;7.356;2023-08-30T04:07:35;25.90;99.90
19908;DHT22;10116;53.112;7.356;2023-08-30T04:10:02;25.90;99.90
19908;DHT22;10116;53.112;7.356;2023-08-30T04:12:31;25.90;99.90
19908;DHT22;10116;53.112;7.356;2023-08-30T04:14:57;25.90;99.90
19908;DHT22;10116;53.112;7.356;2023-08-30T04:17:22;25.90;99.90
19908;DHT22;10116;53.112;7.356;2023-08-30T04:19:52;26.00;99.90
19908;DHT22;10116;53.112;7.356;2023-08-30T04:22:18;26.00;99.90
19908;DHT22;10116;53.112;7.356;2023-08-30T04:24:45;25.90;99.90
19908;DHT22;10116;53.112;7.356;2023-08-30T04:27:11;25.90;99.90
19908;DHT22;10116;53.112;7.356;2023-08-30T04:29:36;25.90;99.90
19908;DHT22;10116;53.112;7.356;2023-08-30T04:32:02;25.90;99.90
19908;DHT22;10116;53.112;7.356;2023-08-30T04:34:28;25.90;99.90
19908;DHT22;10116;53.112;7.356;2023-08-30T04:36:55;25.90;99.90
19908;DHT22;10116;53.112;7.356;2023-08-30T04:39:20;25.90;99.90
19908;DHT22;10116;53.112;7.356;2023-08-30T04:41:46;25.90;99.90
19908;DHT22;10116;53.112;7.356;2023-08-30T04:44:12;25.90;99.90
19908;DHT22;10116;53.112;7.356;2023-08-30T04:46:37;25.90;99.90
19908;DHT22;10116;53.112;7.356;2023-08-30T04:49:03;25.90;99.90
19908;DHT22;10116;53.112;7.356;2023-08-30T04:51:29;26.00;99.90
19908;DHT22;10116;53.112;7.356;2023-08-30T04:53:55;26.00;99.90
19908;DHT22;10116;53.112;7.356;2023-08-30T04:56:21;26.00;99.90
19908;DHT22;10116;53.112;7.356;2023-08-30T04:58:46;26.10;99.90
19908;DHT22;10116;53.112;7.356;2023-08-30T05:01:12;26.10;99.90
19908;DHT22;10116;53.112;7.356;2023-08-30T05:03:39;26.10;99.90
19908;DHT22;10116;53.112;7.356;2023-08-30T05:06:05;26.10;99.90
19908;DHT22;10116;53.112;7.356;2023-08-30T05:08:31;26.20;99.90
19908;DHT22;10116;53.112;7.356;2023-08-30T05:10:57;26.20;99.90
19908;DHT22;10116;53.112;7.356;2023-08-30T05:13:22;26.20;99.90
19908;DHT22;10116;53.112;7.356;2023-08-30T05:15:48;26.20;99.90
19908;DHT22;10116;53.112;7.356;2023-08-30T05:18:14;26.20;99.90
19908;DHT22;10116;53.112;7.356;2023-08-30T05:20:40;26.20;99.90
19908;DHT22;10116;53.112;7.356;2023-08-30T05:23:05;26.20;99.90
19908;DHT22;10116;53.112;7.356;2023-08-30T05:25:31;26.20;99.90
19908;DHT22;10116;53.112;7.356;2023-08-30T05:27:57;26.20;99.90
19908;DHT22;10116;53.112;7.356;2023-08-30T05:30:22;26.20;99.90
19908;DHT22;10116;53.112;7.356;2023-08-30T05:32:48;26.20;99.90
19908;DHT22;10116;53.112;7.356;2023-08-30T05:35:14;26.20;99.90
19908;DHT22;10116;53.112;7.356;2023-08-30T05:37:39;26.20;99.90
19908;DHT22;10116;53.112;7.356;2023-08-30T05:40:06;26.20;99.90
19908;DHT22;10116;53.112;7.356;2023-08-30T05:42:32;26.20;99.90
19908;DHT22;10116;53.112;7.356;2023-08-30T05:44:58;26.20;99.90
19908;DHT22;10116;53.112;7.356;2023-08-30T05:47:24;26.20;99.90
19908;DHT22;10116;53.112;7.356;2023-08-30T05:49:49;26.20;99.90
19908;DHT22;10116;53.112;7.356;2023-08-30T05:52:15;26.20;99.90
19908;DHT22;10116;53.112;7.356;2023-08-30T05:54:42;26.20;99.90
19908;DHT22;10116;53.112;7.356;2023-08-30T05:57:09;26.20;99.90
19908;DHT22;10116;53.112;7.356;2023-08-30T05:59:35;26.20;99.90
19908;DHT22;10116;53.112;7.356;2023-08-30T06:02:01;26.20;99.90
19908;DHT22;10116;53.112;7.356;2023-08-30T06:04:27;26.20;99.90
19908;DHT22;10116;53.112;7.356;2023-08-30T06:06:53;26.20;99.90
19908;DHT22;10116;53.112;7.356;2023-08-30T06:09:18;26.20;99.90
19908;DHT22;10116;53.112;7.356;2023-08-30T06:11:44;26.20;99.90
19908;DHT22;10116;53.112;7.356;2023-08-30T06:14:10;26.30;99.90
19908;DHT22;10116;53.112;7.356;2023-08-30T06:16:36;26.30;99.90
19908;DHT22;10116;53.112;7.356;2023-08-30T06:19:02;26.40;99.90
19908;DHT22;10116;53.112;7.356;2023-08-30T06:21:28;26.40;99.90
19908;DHT22;10116;53.112;7.356;2023-08-30T06:23:53;26.40;99.90
19908;DHT22;10116;53.112;7.356;2023-08-30T06:26:19;26.40;99.90
19908;DHT22;10116;53.112;7.356;2023-08-30T06:28:45;26.40;99.90
19908;DHT22;10116;53.112;7.356;2023-08-30T06:31:11;26.40;99.90
19908;DHT22;10116;53.112;7.356;2023-08-30T06:33:36;26.30;99.90
19908;DHT22;10116;53.112;7.356;2023-08-30T06:36:05;26.20;99.90
19908;DHT22;10116;53.112;7.356;2023-08-30T06:38:31;26.20;99.90
19908;DHT22;10116;53.112;7.356;2023-08-30T06:41:00;26.10;99.90
19908;DHT22;10116;53.112;7.356;2023-08-30T06:43:25;26.10;99.90
19908;DHT22;10116;53.112;7.356;2023-08-30T06:45:51;26.00;99.90
19908;DHT22;10116;53.112;7.356;2023-08-30T06:48:18;25.90;99.90
19908;DHT22;10116;53.112;7.356;2023-08-30T06:50:44;26.00;99.90
19908;DHT22;10116;53.112;7.356;2023-08-30T06:53:09;25.90;99.90
19908;DHT22;10116;53.112;7.356;2023-08-30T06:55:35;25.90;99.90
19908;DHT22;10116;53.112;7.356;2023-08-30T06:58:02;25.90;99.90
19908;DHT22;10116;53.112;7.356;2023-08-30T07:00:28;25.90;99.90
19908;DHT22;10116;53.112;7.356;2023-08-30T07:02:54;25.80;99.90
19908;DHT22;10116;53.112;7.356;2023-08-30T07:05:21;25.80;99.90
19908;DHT22;10116;53.112;7.356;2023-08-30T07:07:47;25.80;99.90
19908;DHT22;10116;53.112;7.356;2023-08-30T07:10:12;25.70;99.90
19908;DHT22;10116;53.112;7.356;2023-08-30T07:12:38;25.70;99.90
19908;DHT22;10116;53.112;7.356;2023-08-30T07:15:04;25.60;99.90
19908;DHT22;10116;53.112;7.356;2023-08-30T07:17:30;25.60;99.90
19908;DHT22;10116;53.112;7.356;2023-08-30T07:19:56;25.70;99.90
19908;DHT22;10116;53.112;7.356;2023-08-30T07:22:21;25.80;99.90
19908;DHT22;10116;53.112;7.356;2023-08-30T07:24:47;25.80;99.90
19908;DHT22;10116;53.112;7.356;2023-08-30T07:27:12;25.90;99.90
19908;DHT22;10116;53.112;7.356;2023-08-30T07:29:39;25.90;99.90
19908;DHT22;10116;53.112;7.356;2023-08-30T07:32:08;25.90;99.90
19908;DHT22;10116;53.112;7.356;2023-08-30T07:34:33;25.90;99.90
19908;DHT22;10116;53.112;7.356;2023-08-30T07:36:59;26.00;99.90
19908;DHT22;10116;53.112;7.356;2023-08-30T07:39:25;26.00;99.90
19908;DHT22;10116;53.112;7.356;2023-08-30T07:41:50;26.10;99.90
19908;DHT22;10116;53.112;7.356;2023-08-30T07:44:16;26.10;99.90
19908;DHT22;10116;53.112;7.356;2023-08-30T07:46:42;26.20;99.90
19908;DHT22;10116;53.112;7.356;2023-08-30T07:49:08;26.30;99.90
19908;DHT22;10116;53.112;7.356;2023-08-30T07:51:34;26.30;99.90
19908;DHT22;10116;53.112;7.356;2023-08-30T07:53:59;26.30;99.90
19908;DHT22;10116;53.112;7.356;2023-08-30T07:56:25;26.30;99.90
19908;DHT22;10116;53.112;7.356;2023-08-30T07:58:51;26.40;99.90
19908;DHT22;10116;53.112;7.356;2023-08-30T08:01:17;26.40;99.90
19908;DHT22;10116;53.112;7.356;2023-08-30T08:03:42;26.40;99.90
19908;DHT22;10116;53.112;7.356;2023-08-30T08:06:08;26.40;99.90
19908;DHT22;10116;53.112;7.356;2023-08-30T08:08:34;26.40;99.90
19908;DHT22;10116;53.112;7.356;2023-08-30T08:10:59;26.40;99.90
19908;DHT22;10116;53.112;7.356;2023-08-30T08:13:25;26.40;99.90
19908;DHT22;10116;53.112;7.356;2023-08-30T08:15:51;26.40;99.90
19908;DHT22;10116;53.112;7.356;2023-08-30T08:18:17;26.40;99.90
19908;DHT22;10116;53.112;7.356;2023-08-30T08:20:42;26.40;99.90
19908;DHT22;10116;53.112;7.356;2023-08-30T08:23:08;26.30;99.90
19908;DHT22;10116;53.112;7.356;2023-08-30T08:25:34;26.30;99.90
19908;DHT22;10116;53.112;7.356;2023-08-30T08:28:00;26.30;99.90
19908;DHT22;10116;53.112;7.356;2023-08-30T08:30:26;26.30;99.90
19908;DHT22;10116;53.112;7.356;2023-08-30T08:32:51;26.30;99.90
19908;DHT22;10116;53.112;7.356;2023-08-30T08:35:17;26.30;99.90
19908;DHT22;10116;53.112;7.356;2023-08-30T08:37:43;26.30;99.90
19908;DHT22;10116;53.112;7.356;2023-08-30T08:40:09;26.30;99.90
19908;DHT22;10116;53.112;7.356;2023-08-30T08:42:36;26.30;99.90
19908;DHT22;10116;53.112;7.356;2023-08-30T08:45:03;26.30;99.90
19908;DHT22;10116;53.112;7.356;2023-08-30T08:47:30;26.20;99.90
19908;DHT22;10116;53.112;7.356;2023-08-30T08:49:56;26.20;99.90
19908;DHT22;10116;53.112;7.356;2023-08-30T08:52:24;26.20;99.90
19908;DHT22;10116;53.112;7.356;2023-08-30T08:54:50;26.30;99.90
19908;DHT22;10116;53.112;7.356;2023-08-30T08:57:17;26.20;99.90
19908;DHT22;10116;53.112;7.356;2023-08-30T08:59:44;26.20;99.90
19908;DHT22;10116;53.112;7.356;2023-08-30T09:02:12;26.20;99.90
19908;DHT22;10116;53.112;7.356;2023-08-30T09:04:39;26.20;99.90
19908;DHT22;10116;53.112;7.356;2023-08-30T09:07:05;26.20;99.90
19908;DHT22;10116;53.112;7.356;2023-08-30T09:09:31;26.20;99.90
19908;DHT22;10116;53.112;7.356;2023-08-30T09:11:57;26.20;99.90
19908;DHT22;10116;53.112;7.356;2023-08-30T09:14:22;26.20;99.90
19908;DHT22;10116;53.112;7.356;2023-08-30T09:17:14;26.20;99.90
19908;DHT22;10116;53.112;7.356;2023-08-30T09:19:40;26.20;99.90
19908;DHT22;10116;53.112;7.356;2023-08-30T09:22:06;26.10;99.90
19908;DHT22;10116;53.112;7.356;2023-08-30T09:24:40;26.10;99.90
19908;DHT22;10116;53.112;7.356;2023-08-30T09:27:06;26.10;99.90
19908;DHT22;10116;53.112;7.356;2023-08-30T09:29:32;26.10;99.90
19908;DHT22;10116;53.112;7.356;2023-08-30T09:31:58;26.10;99.90
19908;DHT22;10116;53.112;7.356;2023-08-30T09:34:26;26.10;99.90
19908;DHT22;10116;53.112;7.356;2023-08-30T09:36:53;26.10;99.90
19908;DHT22;10116;53.112;7.356;2023-08-30T09:39:19;26.10;99.90
19908;DHT22;10116;53.112;7.356;2023-08-30T09:41:48;26.10;99.90
19908;DHT22;10116;53.112;7.356;2023-08-30T09:44:18;26.10;99.90
19908;DHT22;10116;53.112;7.356;2023-08-30T09:46:52;26.10;99.90
19908;DHT22;10116;53.112;7.356;2023-08-30T09:51:48;26.00;99.90
19908;DHT22;10116;53.112;7.356;2023-08-30T09:54:19;26.00;99.90
19908;DHT22;10116;53.112;7.356;2023-08-30T09:56:45;26.00;99.90
19908;DHT22;10116;53.112;7.356;2023-08-30T09:59:13;26.00;99.90
19908;DHT22;10116;53.112;7.356;2023-08-30T10:01:40;26.00;99.90
19908;DHT22;10116;53.112;7.356;2023-08-30T10:04:08;26.00;99.90
19908;DHT22;10116;53.112;7.356;2023-08-30T10:06:37;26.00;99.90
19908;DHT22;10116;53.112;7.356;2023-08-30T10:09:04;26.10;99.90
19908;DHT22;10116;53.112;7.356;2023-08-30T10:11:36;26.10;99.90
19908;DHT22;10116;53.112;7.356;2023-08-30T10:14:03;26.20;99.90
19908;DHT22;10116;53.112;7.356;2023-08-30T10:16:36;26.20;99.90
19908;DHT22;10116;53.112;7.356;2023-08-30T10:19:09;26.30;99.90
19908;DHT22;10116;53.112;7.356;2023-08-30T10:21:36;26.30;99.90
19908;DHT22;10116;53.112;7.356;2023-08-30T10:24:05;26.30;99.90
19908;DHT22;10116;53.112;7.356;2023-08-30T10:26:33;26.40;99.90
19908;DHT22;10116;53.112;7.356;2023-08-30T10:28:59;26.40;99.90
19908;DHT22;10116;53.112;7.356;2023-08-30T10:31:27;26.40;99.90
19908;DHT22;10116;53.112;7.356;2023-08-30T10:33:53;26.40;99.90
19908;DHT22;10116;53.112;7.356;2023-08-30T10:36:26;26.40;99.90
19908;DHT22;10116;53.112;7.356;2023-08-30T10:38:54;26.40;99.90
19908;DHT22;10116;53.112;7.356;2023-08-30T10:41:25;26.40;99.90
19908;DHT22;10116;53.112;7.356;2023-08-30T10:43:52;26.40;99.90
19908;DHT22;10116;53.112;7.356;2023-08-30T10:46:33;26.50;99.90
19908;DHT22;10116;53.112;7.356;2023-08-30T10:49:14;26.50;99.90
19908;DHT22;10116;53.112;7.356;2023-08-30T10:51:41;26.40;99.90
19908;DHT22;10116;53.112;7.356;2023-08-30T10:54:25;26.40;99.90
19908;DHT22;10116;53.112;7.356;2023-08-30T10:59:20;26.40;99.90
19908;DHT22;10116;53.112;7.356;2023-08-30T11:01:47;26.40;99.90
19908;DHT22;10116;53.112;7.356;2023-08-30T11:04:16;26.50;99.90
19908;DHT22;10116;53.112;7.356;2023-08-30T11:06:45;26.40;99.90
19908;DHT22;10116;53.112;7.356;2023-08-30T11:09:24;26.50;99.90
19908;DHT22;10116;53.112;7.356;2023-08-30T11:11:50;26.50;99.90
19908;DHT22;10116;53.112;7.356;2023-08-30T11:14:17;26.40;99.90
19908;DHT22;10116;53.112;7.356;2023-08-30T11:16:44;26.40;99.90
19908;DHT22;10116;53.112;7.356;2023-08-30T11:19:11;26.40;99.90
19908;DHT22;10116;53.112;7.356;2023-08-30T11:21:42;26.40;99.90
19908;DHT22;10116;53.112;7.356;2023-08-30T11:24:08;26.40;99.90
19908;DHT22;10116;53.112;7.356;2023-08-30T11:26:34;26.40;99.90
19908;DHT22;10116;53.112;7.356;2023-08-30T11:29:07;26.40;99.90
19908;DHT22;10116;53.112;7.356;2023-08-30T11:31:33;26.40;99.90
19908;DHT22;10116;53.112;7.356;2023-08-30T11:34:00;26.40;99.90
19908;DHT22;10116;53.112;7.356;2023-08-30T11:36:27;26.40;99.90
19908;DHT22;10116;53.112;7.356;2023-08-30T11:38:54;26.40;99.90
19908;DHT22;10116;53.112;7.356;2023-08-30T11:41:20;26.40;99.90
19908;DHT22;10116;53.112;7.356;2023-08-30T11:43:50;26.40;99.90
19908;DHT22;10116;53.112;7.356;2023-08-30T11:46:20;26.50;99.90
19908;DHT22;10116;53.112;7.356;2023-08-30T11:48:47;26.50;99.90
19908;DHT22;10116;53.112;7.356;2023-08-30T11:51:14;26.50;99.90
19908;DHT22;10116;53.112;7.356;2023-08-30T11:53:40;26.50;99.90
19908;DHT22;10116;53.112;7.356;2023-08-30T11:56:07;26.50;99.90
19908;DHT22;10116;53.112;7.356;2023-08-30T11:58:36;26.60;99.90
19908;DHT22;10116;53.112;7.356;2023-08-30T12:01:06;26.60;99.90
19908;DHT22;10116;53.112;7.356;2023-08-30T12:03:32;26.60;99.90
19908;DHT22;10116;53.112;7.356;2023-08-30T12:05:59;26.60;99.90
19908;DHT22;10116;53.112;7.356;2023-08-30T12:08:28;26.60;99.90
19908;DHT22;10116;53.112;7.356;2023-08-30T12:10:55;26.60;99.90
19908;DHT22;10116;53.112;7.356;2023-08-30T12:13:34;26.60;99.90
19908;DHT22;10116;53.112;7.356;2023-08-30T12:16:01;26.60;99.90
19908;DHT22;10116;53.112;7.356;2023-08-30T12:18:29;26.60;99.90
19908;DHT22;10116;53.112;7.356;2023-08-30T12:21:00;26.60;99.90
19908;DHT22;10116;53.112;7.356;2023-08-30T12:23:27;26.60;99.90
19908;DHT22;10116;53.112;7.356;2023-08-30T12:25:57;26.60;99.90
19908;DHT22;10116;53.112;7.356;2023-08-30T12:28:27;26.50;99.90
19908;DHT22;10116;53.112;7.356;2023-08-30T12:30:54;26.60;99.90
19908;DHT22;10116;53.112;7.356;2023-08-30T12:33:19;26.50;99.90
19908;DHT22;10116;53.112;7.356;2023-08-30T12:35:45;26.50;99.90
19908;DHT22;10116;53.112;7.356;2023-08-30T12:38:11;26.50;99.90
19908;DHT22;10116;53.112;7.356;2023-08-30T12:40:49;26.50;99.90
19908;DHT22;10116;53.112;7.356;2023-08-30T12:43:16;26.50;99.90
19908;DHT22;10116;53.112;7.356;2023-08-30T12:45:43;26.50;99.90
19908;DHT22;10116;53.112;7.356;2023-08-30T12:48:12;26.40;99.90
19908;DHT22;10116;53.112;7.356;2023-08-30T12:50:39;26.50;99.90
19908;DHT22;10116;53.112;7.356;2023-08-30T12:53:06;26.40;99.90
19908;DHT22;10116;53.112;7.356;2023-08-30T12:55:32;26.40;99.90
19908;DHT22;10116;53.112;7.356;2023-08-30T12:57:58;26.40;99.90
19908;DHT22;10116;53.112;7.356;2023-08-30T13:00:24;26.40;99.90
19908;DHT22;10116;53.112;7.356;2023-08-30T13:02:50;26.40;99.90
19908;DHT22;10116;53.112;7.356;2023-08-30T13:05:16;26.30;99.90
19908;DHT22;10116;53.112;7.356;2023-08-30T13:07:42;26.30;99.90
19908;DHT22;10116;53.112;7.356;2023-08-30T13:10:08;26.40;99.90
19908;DHT22;10116;53.112;7.356;2023-08-30T13:12:34;26.30;99.90
19908;DHT22;10116;53.112;7.356;2023-08-30T13:15:00;26.30;99.90
19908;DHT22;10116;53.112;7.356;2023-08-30T13:17:26;26.30;99.90
19908;DHT22;10116;53.112;7.356;2023-08-30T13:19:52;26.30;99.90
19908;DHT22;10116;53.112;7.356;2023-08-30T13:22:17;26.40;99.90
19908;DHT22;10116;53.112;7.356;2023-08-30T13:24:44;26.40;99.90
19908;DHT22;10116;53.112;7.356;2023-08-30T13:27:10;26.40;99.90
19908;DHT22;10116;53.112;7.356;2023-08-30T13:29:36;26.50;99.90
19908;DHT22;10116;53.112;7.356;2023-08-30T13:32:02;26.50;99.90
19908;DHT22;10116;53.112;7.356;2023-08-30T13:34:28;26.50;99.90
19908;DHT22;10116;53.112;7.356;2023-08-30T13:36:54;26.50;99.90
19908;DHT22;10116;53.112;7.356;2023-08-30T13:39:20;26.60;99.90
19908;DHT22;10116;53.112;7.356;2023-08-30T13:41:49;26.60;99.90
19908;DHT22;10116;53.112;7.356;2023-08-30T13:44:15;26.60;99.90
19908;DHT22;10116;53.112;7.356;2023-08-30T13:46:41;26.60;99.90
19908;DHT22;10116;53.112;7.356;2023-08-30T13:49:08;26.60;99.90
19908;DHT22;10116;53.112;7.356;2023-08-30T13:51:34;26.60;99.90
19908;DHT22;10116;53.112;7.356;2023-08-30T13:53:59;26.60;99.90
19908;DHT22;10116;53.112;7.356;2023-08-30T13:56:25;26.60;99.90
19908;DHT22;10116;53.112;7.356;2023-08-30T13:58:51;26.60;99.90
19908;DHT22;10116;53.112;7.356;2023-08-30T14:01:17;26.60;99.90
19908;DHT22;10116;53.112;7.356;2023-08-30T14:03:43;26.60;99.90
19908;DHT22;10116;53.112;7.356;2023-08-30T14:06:09;26.60;99.90
19908;DHT22;10116;53.112;7.356;2023-08-30T14:08:35;26.60;99.90
19908;DHT22;10116;53.112;7.356;2023-08-30T14:11:01;26.60;99.90
19908;DHT22;10116;53.112;7.356;2023-08-30T14:13:27;26.50;99.90
19908;DHT22;10116;53.112;7.356;2023-08-30T14:16:01;26.60;99.90
19908;DHT22;10116;53.112;7.356;2023-08-30T14:18:28;26.60;99.90
19908;DHT22;10116;53.112;7.356;2023-08-30T14:20:58;26.50;99.90
19908;DHT22;10116;53.112;7.356;2023-08-30T14:23:24;26.50;99.90
19908;DHT22;10116;53.112;7.356;2023-08-30T14:25:59;26.60;99.90
19908;DHT22;10116;53.112;7.356;2023-08-30T14:28:26;26.50;99.90
19908;DHT22;10116;53.112;7.356;2023-08-30T14:30:53;26.50;99.90
19908;DHT22;10116;53.112;7.356;2023-08-30T14:33:18;26.50;99.90
19908;DHT22;10116;53.112;7.356;2023-08-30T14:35:44;26.50;99.90
19908;DHT22;10116;53.112;7.356;2023-08-30T14:38:10;26.50;99.90
19908;DHT22;10116;53.112;7.356;2023-08-30T14:40:35;26.50;99.90
19908;DHT22;10116;53.112;7.356;2023-08-30T14:43:04;26.50;99.90
19908;DHT22;10116;53.112;7.356;2023-08-30T14:45:33;26.50;99.90
19908;DHT22;10116;53.112;7.356;2023-08-30T14:47:58;26.50;99.90
19908;DHT22;10116;53.112;7.356;2023-08-30T14:50:24;26.50;99.90
19908;DHT22;10116;53.112;7.356;2023-08-30T14:52:50;26.50;99.90
19908;DHT22;10116;53.112;7.356;2023-08-30T14:55:17;26.50;99.90
19908;DHT22;10116;53.112;7.356;2023-08-30T14:57:43;26.50;99.90
19908;DHT22;10116;53.112;7.356;2023-08-30T15:00:09;26.50;99.90
19908;DHT22;10116;53.112;7.356;2023-08-30T15:02:35;26.60;99.90
19908;DHT22;10116;53.112;7.356;2023-08-30T15:05:00;26.60;99.90
19908;DHT22;10116;53.112;7.356;2023-08-30T15:07:26;26.60;99.90
19908;DHT22;10116;53.112;7.356;2023-08-30T15:09:52;26.70;99.90
19908;DHT22;10116;53.112;7.356;2023-08-30T15:12:17;26.70;99.90
19908;DHT22;10116;53.112;7.356;2023-08-30T15:14:43;26.70;99.90
19908;DHT22;10116;53.112;7.356;2023-08-30T15:17:13;26.70;99.90
19908;DHT22;10116;53.112;7.356;2023-08-30T15:19:39;26.70;99.90
19908;DHT22;10116;53.112;7.356;2023-08-30T15:22:05;26.70;99.90
19908;DHT22;10116;53.112;7.356;2023-08-30T15:24:30;26.70;99.90
19908;DHT22;10116;53.112;7.356;2023-08-30T15:26:56;26.70;99.90
19908;DHT22;10116;53.112;7.356;2023-08-30T15:29:22;26.70;99.90
19908;DHT22;10116;53.112;7.356;2023-08-30T15:31:48;26.70;99.90
19908;DHT22;10116;53.112;7.356;2023-08-30T15:34:19;26.70;99.90
19908;DHT22;10116;53.112;7.356;2023-08-30T15:36:45;26.70;99.90
19908;DHT22;10116;53.112;7.356;2023-08-30T15:39:13;26.70;99.90
19908;DHT22;10116;53.112;7.356;2023-08-30T15:41:41;26.70;99.90